sensor_id;sensor_type;location;lat;lon;timestamp;pressure;altitude;pressure_sealevel;temperature;humidity
49709;BME280;35601;55.902;13.606;2023-06-26T00:00:51;100808.91;;;14.28;68.08
49709;BME280;35601;55.902;13.606;2023-06-26T00:03:16;100811.05;;;13.93;69.34
49709;BME280;35601;55.902;13.606;2023-06-26T00:05:42;100812.88;;;13.90;69.48
49709;BME280;35601;55.902;13.606;2023-06-26T00:08:07;100814.01;;;13.71;69.90
49709;BME280;35601;55.902;13.606;2023-06-26T00:10:34;100813.03;;;14.02;69.83
49709;BME280;35601;55.902;13.606;2023-06-26T00:12:59;100813.11;;;13.73;69.78
49709;BME280;35601;55.902;13.606;2023-06-26T00:15:24;100811.22;;;13.75;69.82
49709;BME280;35601;55.902;13.606;2023-06-26T00:17:49;100810.81;;;13.71;70.02
49709;BME280;35601;55.902;13.606;2023-06-26T00:20:15;100808.82;;;13.75;70.69
49709;BME280;35601;55.902;13.606;2023-06-26T00:22:40;100808.19;;;13.49;70.75
49709;BME280;35601;55.902;13.606;2023-06-26T00:25:06;100806.44;;;13.55;70.44
49709;BME280;35601;55.902;13.606;2023-06-26T00:27:32;100803.34;;;13.58;69.78
49709;BME280;35601;55.902;13.606;2023-06-26T00:29:58;100804.48;;;13.45;70.31
49709;BME280;35601;55.902;13.606;2023-06-26T00:32:22;100802.94;;;13.42;70.72
49709;BME280;35601;55.902;13.606;2023-06-26T00:34:48;100797.73;;;13.48;70.04
49709;BME280;35601;55.902;13.606;2023-06-26T00:37:13;100793.98;;;13.40;69.63
49709;BME280;35601;55.902;13.606;2023-06-26T00:39:39;100791.12;;;13.60;69.49
49709;BME280;35601;55.902;13.606;2023-06-26T00:42:07;100788.18;;;13.75;69.30
49709;BME280;35601;55.902;13.606;2023-06-26T00:44:29;100788.25;;;13.18;69.37
49709;BME280;35601;55.902;13.606;2023-06-26T00:46:55;100787.88;;;13.26;70.34
49709;BME280;35601;55.902;13.606;2023-06-26T00:49:21;100783.55;;;13.15;71.00
49709;BME280;35601;55.902;13.606;2023-06-26T00:51:45;100778.49;;;13.11;71.10
49709;BME280;35601;55.902;13.606;2023-06-26T00:54:11;100774.87;;;13.09;71.02
49709;BME280;35601;55.902;13.606;2023-06-26T00:56:36;100774.73;;;13.15;70.01
49709;BME280;35601;55.902;13.606;2023-06-26T00:59:01;100771.11;;;13.08;69.90
49709;BME280;35601;55.902;13.606;2023-06-26T01:01:26;100771.37;;;12.99;70.25
49709;BME280;35601;55.902;13.606;2023-06-26T01:03:52;100766.33;;;13.18;70.73
49709;BME280;35601;55.902;13.606;2023-06-26T01:06:18;100762.18;;;13.15;70.31
49709;BME280;35601;55.902;13.606;2023-06-26T01:08:44;100760.54;;;12.82;70.92
49709;BME280;35601;55.902;13.606;2023-06-26T01:11:08;100758.47;;;13.07;71.07
49709;BME280;35601;55.902;13.606;2023-06-26T01:13:34;100759.31;;;13.03;71.25
49709;BME280;35601;55.902;13.606;2023-06-26T01:15:59;100759.26;;;13.03;71.07
49709;BME280;35601;55.902;13.606;2023-06-26T01:18:24;100757.59;;;13.04;70.63
49709;BME280;35601;55.902;13.606;2023-06-26T01:20:49;100757.08;;;13.01;70.03
49709;BME280;35601;55.902;13.606;2023-06-26T01:23:17;100754.79;;;12.95;70.34
49709;BME280;35601;55.902;13.606;2023-06-26T01:25:52;100755.06;;;12.77;71.29
49709;BME280;35601;55.902;13.606;2023-06-26T01:28:05;100751.43;;;12.68;71.66
49709;BME280;35601;55.902;13.606;2023-06-26T01:30:31;100752.48;;;12.69;71.66
49709;BME280;35601;55.902;13.606;2023-06-26T01:32:56;100754.60;;;12.73;71.19
49709;BME280;35601;55.902;13.606;2023-06-26T01:35:22;100752.86;;;12.58;71.40
49709;BME280;35601;55.902;13.606;2023-06-26T01:37:48;100754.88;;;12.52;71.67
49709;BME280;35601;55.902;13.606;2023-06-26T01:40:12;100755.28;;;12.51;72.69
49709;BME280;35601;55.902;13.606;2023-06-26T01:42:37;100751.36;;;12.23;73.17
49709;BME280;35601;55.902;13.606;2023-06-26T01:45:10;100749.89;;;12.49;72.99
49709;BME280;35601;55.902;13.606;2023-06-26T01:47:30;100749.35;;;12.15;72.51
49709;BME280;35601;55.902;13.606;2023-06-26T01:50:00;100746.90;;;12.48;71.73
49709;BME280;35601;55.902;13.606;2023-06-26T01:52:21;100750.76;;;12.52;71.51
49709;BME280;35601;55.902;13.606;2023-06-26T01:54:51;100747.93;;;12.23;71.67
49709;BME280;35601;55.902;13.606;2023-06-26T01:57:11;100748.12;;;12.21;71.75
49709;BME280;35601;55.902;13.606;2023-06-26T01:59:37;100748.28;;;12.16;72.03
49709;BME280;35601;55.902;13.606;2023-06-26T02:02:01;100743.75;;;12.33;72.51
49709;BME280;35601;55.902;13.606;2023-06-26T02:04:27;100741.30;;;12.27;72.42
49709;BME280;35601;55.902;13.606;2023-06-26T02:06:54;100740.20;;;12.21;72.47
49709;BME280;35601;55.902;13.606;2023-06-26T02:09:18;100736.80;;;11.94;72.52
49709;BME280;35601;55.902;13.606;2023-06-26T02:11:43;100735.49;;;12.42;72.26
49709;BME280;35601;55.902;13.606;2023-06-26T02:14:08;100735.03;;;12.24;71.82
49709;BME280;35601;55.902;13.606;2023-06-26T02:16:35;100733.98;;;12.22;71.58
49709;BME280;35601;55.902;13.606;2023-06-26T02:18:59;100731.08;;;12.11;73.22
49709;BME280;35601;55.902;13.606;2023-06-26T02:21:25;100728.95;;;12.11;73.31
49709;BME280;35601;55.902;13.606;2023-06-26T02:23:52;100728.29;;;12.04;74.18
49709;BME280;35601;55.902;13.606;2023-06-26T02:26:17;100729.50;;;11.85;75.39
49709;BME280;35601;55.902;13.606;2023-06-26T02:28:44;100727.84;;;12.00;75.54
49709;BME280;35601;55.902;13.606;2023-06-26T02:31:07;100723.17;;;11.80;75.27
49709;BME280;35601;55.902;13.606;2023-06-26T02:33:34;100722.73;;;12.07;74.95
49709;BME280;35601;55.902;13.606;2023-06-26T02:35:58;100723.72;;;11.87;74.97
49709;BME280;35601;55.902;13.606;2023-06-26T02:38:24;100720.89;;;11.91;74.75
49709;BME280;35601;55.902;13.606;2023-06-26T02:40:49;100718.43;;;12.18;74.94
49709;BME280;35601;55.902;13.606;2023-06-26T02:43:15;100714.30;;;12.14;75.10
49709;BME280;35601;55.902;13.606;2023-06-26T02:45:41;100712.14;;;11.59;75.21
49709;BME280;35601;55.902;13.606;2023-06-26T02:48:06;100712.46;;;11.85;75.28
49709;BME280;35601;55.902;13.606;2023-06-26T02:50:32;100712.35;;;12.15;74.95
49709;BME280;35601;55.902;13.606;2023-06-26T02:52:57;100714.77;;;11.99;74.55
49709;BME280;35601;55.902;13.606;2023-06-26T02:55:23;100716.04;;;12.04;74.54
49709;BME280;35601;55.902;13.606;2023-06-26T02:57:48;100714.39;;;12.04;74.34
49709;BME280;35601;55.902;13.606;2023-06-26T03:00:16;100712.01;;;12.07;73.93
49709;BME280;35601;55.902;13.606;2023-06-26T03:02:39;100706.42;;;12.12;73.28
49709;BME280;35601;55.902;13.606;2023-06-26T03:05:05;100706.67;;;12.06;73.65
49709;BME280;35601;55.902;13.606;2023-06-26T03:07:29;100706.46;;;11.89;73.42
49709;BME280;35601;55.902;13.606;2023-06-26T03:09:56;100702.32;;;12.36;73.44
49709;BME280;35601;55.902;13.606;2023-06-26T03:12:22;100698.34;;;12.13;73.51
49709;BME280;35601;55.902;13.606;2023-06-26T03:14:46;100697.67;;;11.93;73.39
49709;BME280;35601;55.902;13.606;2023-06-26T03:17:11;100696.86;;;12.20;73.23
49709;BME280;35601;55.902;13.606;2023-06-26T03:19:38;100693.37;;;12.44;73.34
49709;BME280;35601;55.902;13.606;2023-06-26T03:22:04;100692.80;;;12.25;73.40
49709;BME280;35601;55.902;13.606;2023-06-26T03:24:28;100692.21;;;12.09;74.12
49709;BME280;35601;55.902;13.606;2023-06-26T03:26:54;100692.18;;;12.43;74.85
49709;BME280;35601;55.902;13.606;2023-06-26T03:29:20;100692.34;;;12.53;74.99
49709;BME280;35601;55.902;13.606;2023-06-26T03:31:46;100692.65;;;12.44;76.85
49709;BME280;35601;55.902;13.606;2023-06-26T03:34:10;100690.01;;;12.91;76.54
49709;BME280;35601;55.902;13.606;2023-06-26T03:36:36;100691.82;;;12.88;75.34
49709;BME280;35601;55.902;13.606;2023-06-26T03:39:01;100692.52;;;13.16;74.05
49709;BME280;35601;55.902;13.606;2023-06-26T03:41:25;100689.46;;;13.22;73.04
49709;BME280;35601;55.902;13.606;2023-06-26T03:43:51;100688.77;;;13.65;72.11
49709;BME280;35601;55.902;13.606;2023-06-26T03:46:16;100686.77;;;13.46;71.48
49709;BME280;35601;55.902;13.606;2023-06-26T03:48:42;100683.88;;;14.19;70.74
49709;BME280;35601;55.902;13.606;2023-06-26T03:51:07;100682.64;;;14.02;69.75
49709;BME280;35601;55.902;13.606;2023-06-26T03:53:33;100679.08;;;14.38;69.48
49709;BME280;35601;55.902;13.606;2023-06-26T03:55:58;100678.30;;;14.69;69.41
49709;BME280;35601;55.902;13.606;2023-06-26T03:58:23;100677.54;;;15.02;68.84
49709;BME280;35601;55.902;13.606;2023-06-26T04:00:49;100674.57;;;15.12;68.73
49709;BME280;35601;55.902;13.606;2023-06-26T04:03:14;100672.26;;;15.58;67.90
49709;BME280;35601;55.902;13.606;2023-06-26T04:05:42;100667.44;;;15.76;67.08
49709;BME280;35601;55.902;13.606;2023-06-26T04:08:07;100665.07;;;16.27;66.15
49709;BME280;35601;55.902;13.606;2023-06-26T04:10:31;100662.75;;;16.56;64.92
49709;BME280;35601;55.902;13.606;2023-06-26T04:12:58;100663.45;;;16.89;63.55
49709;BME280;35601;55.902;13.606;2023-06-26T04:15:22;100660.50;;;17.25;63.14
49709;BME280;35601;55.902;13.606;2023-06-26T04:17:48;100660.26;;;17.81;62.99
49709;BME280;35601;55.902;13.606;2023-06-26T04:20:14;100654.69;;;18.07;60.45
49709;BME280;35601;55.902;13.606;2023-06-26T04:22:44;100656.20;;;18.29;58.73
49709;BME280;35601;55.902;13.606;2023-06-26T04:25:06;100653.91;;;18.99;59.12
49709;BME280;35601;55.902;13.606;2023-06-26T04:27:29;100657.79;;;18.94;58.12
49709;BME280;35601;55.902;13.606;2023-06-26T04:29:55;100655.20;;;19.35;56.64
49709;BME280;35601;55.902;13.606;2023-06-26T04:32:20;100649.57;;;19.78;56.15
49709;BME280;35601;55.902;13.606;2023-06-26T04:34:46;100644.96;;;20.23;55.33
49709;BME280;35601;55.902;13.606;2023-06-26T04:37:11;100642.12;;;20.43;54.94
49709;BME280;35601;55.902;13.606;2023-06-26T04:39:37;100641.82;;;20.65;55.00
49709;BME280;35601;55.902;13.606;2023-06-26T04:42:06;100643.77;;;19.96;54.09
49709;BME280;35601;55.902;13.606;2023-06-26T04:44:28;100644.64;;;21.56;53.20
49709;BME280;35601;55.902;13.606;2023-06-26T04:46:53;100643.58;;;22.02;51.49
49709;BME280;35601;55.902;13.606;2023-06-26T04:49:19;100641.86;;;22.25;52.91
49709;BME280;35601;55.902;13.606;2023-06-26T04:51:44;100641.02;;;22.45;51.19
49709;BME280;35601;55.902;13.606;2023-06-26T04:54:11;100640.57;;;22.61;50.80
49709;BME280;35601;55.902;13.606;2023-06-26T04:56:35;100637.35;;;22.88;50.53
49709;BME280;35601;55.902;13.606;2023-06-26T04:59:00;100636.14;;;22.90;48.67
49709;BME280;35601;55.902;13.606;2023-06-26T05:01:26;100634.76;;;23.07;48.74
49709;BME280;35601;55.902;13.606;2023-06-26T05:03:49;100634.96;;;22.89;49.32
49709;BME280;35601;55.902;13.606;2023-06-26T05:06:14;100631.61;;;22.99;48.86
49709;BME280;35601;55.902;13.606;2023-06-26T05:08:39;100631.09;;;22.96;48.40
49709;BME280;35601;55.902;13.606;2023-06-26T05:11:05;100628.02;;;23.20;49.23
49709;BME280;35601;55.902;13.606;2023-06-26T05:13:30;100626.07;;;23.03;48.17
49709;BME280;35601;55.902;13.606;2023-06-26T05:15:55;100620.62;;;23.38;49.08
49709;BME280;35601;55.902;13.606;2023-06-26T05:18:20;100620.39;;;23.30;47.97
49709;BME280;35601;55.902;13.606;2023-06-26T05:20:46;100617.38;;;23.39;48.51
49709;BME280;35601;55.902;13.606;2023-06-26T05:23:11;100613.04;;;23.73;47.67
49709;BME280;35601;55.902;13.606;2023-06-26T05:25:37;100607.76;;;24.07;48.34
49709;BME280;35601;55.902;13.606;2023-06-26T05:28:01;100610.52;;;23.84;45.93
49709;BME280;35601;55.902;13.606;2023-06-26T05:30:27;100604.55;;;24.15;46.52
49709;BME280;35601;55.902;13.606;2023-06-26T05:32:52;100604.00;;;24.41;46.39
49709;BME280;35601;55.902;13.606;2023-06-26T05:35:17;100600.35;;;24.82;46.50
49709;BME280;35601;55.902;13.606;2023-06-26T05:37:42;100597.79;;;24.68;44.36
49709;BME280;35601;55.902;13.606;2023-06-26T05:40:08;100593.09;;;24.46;44.06
49709;BME280;35601;55.902;13.606;2023-06-26T05:42:32;100585.94;;;24.78;43.89
49709;BME280;35601;55.902;13.606;2023-06-26T05:44:57;100586.92;;;24.96;43.59
49709;BME280;35601;55.902;13.606;2023-06-26T05:47:22;100587.99;;;25.20;42.99
49709;BME280;35601;55.902;13.606;2023-06-26T05:49:47;100586.29;;;24.94;43.42
49709;BME280;35601;55.902;13.606;2023-06-26T05:52:13;100584.41;;;25.23;42.58
49709;BME280;35601;55.902;13.606;2023-06-26T05:54:38;100583.45;;;25.31;42.49
49709;BME280;35601;55.902;13.606;2023-06-26T05:57:03;100579.41;;;25.03;42.40
49709;BME280;35601;55.902;13.606;2023-06-26T05:59:32;100576.70;;;25.12;42.10
49709;BME280;35601;55.902;13.606;2023-06-26T06:01:53;100576.66;;;25.11;41.96
49709;BME280;35601;55.902;13.606;2023-06-26T06:04:18;100575.47;;;25.31;40.99
49709;BME280;35601;55.902;13.606;2023-06-26T06:06:42;100576.36;;;25.28;41.24
49709;BME280;35601;55.902;13.606;2023-06-26T06:09:08;100573.43;;;25.00;41.40
49709;BME280;35601;55.902;13.606;2023-06-26T06:11:33;100569.25;;;25.02;40.84
49709;BME280;35601;55.902;13.606;2023-06-26T06:13:59;100568.49;;;25.55;39.63
49709;BME280;35601;55.902;13.606;2023-06-26T06:16:25;100566.82;;;24.99;39.72
49709;BME280;35601;55.902;13.606;2023-06-26T06:18:48;100564.21;;;25.40;40.86
49709;BME280;35601;55.902;13.606;2023-06-26T06:21:14;100559.13;;;25.57;40.17
49709;BME280;35601;55.902;13.606;2023-06-26T06:23:38;100557.33;;;25.67;38.34
49709;BME280;35601;55.902;13.606;2023-06-26T06:26:04;100555.86;;;25.83;38.14
49709;BME280;35601;55.902;13.606;2023-06-26T06:28:29;100555.58;;;26.03;36.91
49709;BME280;35601;55.902;13.606;2023-06-26T06:30:56;100552.08;;;26.12;36.44
49709;BME280;35601;55.902;13.606;2023-06-26T06:33:19;100551.30;;;26.23;35.78
49709;BME280;35601;55.902;13.606;2023-06-26T06:35:45;100553.05;;;26.24;34.53
49709;BME280;35601;55.902;13.606;2023-06-26T06:38:09;100550.73;;;25.98;35.32
49709;BME280;35601;55.902;13.606;2023-06-26T06:40:34;100547.81;;;26.34;34.88
49709;BME280;35601;55.902;13.606;2023-06-26T06:43:00;100544.10;;;26.06;35.05
49709;BME280;35601;55.902;13.606;2023-06-26T06:45:24;100540.88;;;26.80;33.56
49709;BME280;35601;55.902;13.606;2023-06-26T06:47:49;100541.45;;;26.23;34.85
49709;BME280;35601;55.902;13.606;2023-06-26T06:50:15;100533.90;;;26.39;35.60
49709;BME280;35601;55.902;13.606;2023-06-26T06:52:40;100527.28;;;26.47;32.13
49709;BME280;35601;55.902;13.606;2023-06-26T06:55:06;100527.54;;;26.46;31.64
49709;BME280;35601;55.902;13.606;2023-06-26T06:57:30;100525.71;;;26.77;32.70
49709;BME280;35601;55.902;13.606;2023-06-26T06:59:55;100526.00;;;26.51;32.33
49709;BME280;35601;55.902;13.606;2023-06-26T07:02:20;100519.68;;;27.08;31.94
49709;BME280;35601;55.902;13.606;2023-06-26T07:04:48;100518.62;;;27.06;30.77
49709;BME280;35601;55.902;13.606;2023-06-26T07:07:12;100521.56;;;27.13;30.71
49709;BME280;35601;55.902;13.606;2023-06-26T07:09:36;100521.76;;;27.16;32.18
49709;BME280;35601;55.902;13.606;2023-06-26T07:12:01;100522.24;;;27.27;29.97
49709;BME280;35601;55.902;13.606;2023-06-26T07:14:26;100516.41;;;27.23;29.18
49709;BME280;35601;55.902;13.606;2023-06-26T07:16:51;100509.90;;;27.16;30.38
49709;BME280;35601;55.902;13.606;2023-06-26T07:19:16;100499.90;;;27.40;29.30
49709;BME280;35601;55.902;13.606;2023-06-26T07:21:41;100501.93;;;27.56;29.17
49709;BME280;35601;55.902;13.606;2023-06-26T07:24:06;100505.59;;;27.60;29.92
49709;BME280;35601;55.902;13.606;2023-06-26T07:26:32;100507.88;;;27.83;30.51
49709;BME280;35601;55.902;13.606;2023-06-26T07:28:56;100506.57;;;27.49;29.55
49709;BME280;35601;55.902;13.606;2023-06-26T07:31:21;100505.53;;;27.32;29.92
49709;BME280;35601;55.902;13.606;2023-06-26T07:33:47;100510.76;;;27.49;30.00
49709;BME280;35601;55.902;13.606;2023-06-26T07:36:11;100511.26;;;27.17;30.05
49709;BME280;35601;55.902;13.606;2023-06-26T07:38:36;100509.36;;;27.27;30.95
49709;BME280;35601;55.902;13.606;2023-06-26T07:41:02;100504.20;;;27.21;30.38
49709;BME280;35601;55.902;13.606;2023-06-26T07:43:27;100499.23;;;27.33;30.24
49709;BME280;35601;55.902;13.606;2023-06-26T07:45:52;100494.76;;;27.28;30.41
49709;BME280;35601;55.902;13.606;2023-06-26T07:48:17;100494.07;;;26.80;30.53
49709;BME280;35601;55.902;13.606;2023-06-26T07:50:42;100495.18;;;27.03;30.30
49709;BME280;35601;55.902;13.606;2023-06-26T07:53:07;100490.93;;;27.26;30.21
49709;BME280;35601;55.902;13.606;2023-06-26T07:55:33;100489.96;;;27.04;29.92
49709;BME280;35601;55.902;13.606;2023-06-26T07:57:58;100489.79;;;26.98;31.08
49709;BME280;35601;55.902;13.606;2023-06-26T08:00:24;100486.90;;;27.17;29.14
49709;BME280;35601;55.902;13.606;2023-06-26T08:02:48;100489.66;;;27.26;29.54
49709;BME280;35601;55.902;13.606;2023-06-26T08:05:14;100489.26;;;27.71;30.88
49709;BME280;35601;55.902;13.606;2023-06-26T08:07:38;100484.77;;;27.42;28.23
49709;BME280;35601;55.902;13.606;2023-06-26T08:10:05;100478.82;;;27.62;28.01
49709;BME280;35601;55.902;13.606;2023-06-26T08:12:29;100475.79;;;27.71;27.10
49709;BME280;35601;55.902;13.606;2023-06-26T08:14:54;100472.38;;;28.13;27.65
49709;BME280;35601;55.902;13.606;2023-06-26T08:17:19;100467.89;;;27.67;28.21
49709;BME280;35601;55.902;13.606;2023-06-26T08:19:44;100464.11;;;27.66;27.44
49709;BME280;35601;55.902;13.606;2023-06-26T08:22:09;100469.00;;;27.85;27.63
49709;BME280;35601;55.902;13.606;2023-06-26T08:24:34;100468.18;;;28.06;28.06
49709;BME280;35601;55.902;13.606;2023-06-26T08:26:59;100461.05;;;28.23;27.12
49709;BME280;35601;55.902;13.606;2023-06-26T08:29:24;100458.21;;;28.25;26.63
49709;BME280;35601;55.902;13.606;2023-06-26T08:31:49;100456.88;;;28.14;28.16
49709;BME280;35601;55.902;13.606;2023-06-26T08:34:14;100449.94;;;28.25;27.31
49709;BME280;35601;55.902;13.606;2023-06-26T08:36:39;100443.71;;;28.77;27.69
49709;BME280;35601;55.902;13.606;2023-06-26T08:39:04;100436.83;;;28.97;27.72
49709;BME280;35601;55.902;13.606;2023-06-26T08:41:29;100434.43;;;29.04;26.53
49709;BME280;35601;55.902;13.606;2023-06-26T08:43:55;100428.79;;;28.93;25.76
49709;BME280;35601;55.902;13.606;2023-06-26T08:46:20;100430.20;;;28.99;27.22
49709;BME280;35601;55.902;13.606;2023-06-26T08:48:55;100429.07;;;29.33;26.36
49709;BME280;35601;55.902;13.606;2023-06-26T08:51:13;100429.89;;;29.27;25.95
49709;BME280;35601;55.902;13.606;2023-06-26T08:53:42;100426.16;;;29.08;26.68
49709;BME280;35601;55.902;13.606;2023-06-26T08:56:01;100422.60;;;29.68;25.93
49709;BME280;35601;55.902;13.606;2023-06-26T08:58:25;100422.28;;;29.91;26.24
49709;BME280;35601;55.902;13.606;2023-06-26T09:00:50;100418.08;;;29.98;25.39
49709;BME280;35601;55.902;13.606;2023-06-26T09:03:16;100414.14;;;29.44;25.46
49709;BME280;35601;55.902;13.606;2023-06-26T09:05:40;100415.99;;;29.90;26.54
49709;BME280;35601;55.902;13.606;2023-06-26T09:08:06;100417.46;;;30.24;24.57
49709;BME280;35601;55.902;13.606;2023-06-26T09:10:30;100414.05;;;29.64;25.96
49709;BME280;35601;55.902;13.606;2023-06-26T09:12:55;100413.40;;;30.16;25.21
49709;BME280;35601;55.902;13.606;2023-06-26T09:15:20;100405.96;;;30.13;25.55
49709;BME280;35601;55.902;13.606;2023-06-26T09:17:47;100405.53;;;30.24;25.56
49709;BME280;35601;55.902;13.606;2023-06-26T09:20:10;100403.00;;;30.36;25.14
49709;BME280;35601;55.902;13.606;2023-06-26T09:22:37;100396.78;;;30.05;25.08
49709;BME280;35601;55.902;13.606;2023-06-26T09:25:01;100393.67;;;30.18;26.10
49709;BME280;35601;55.902;13.606;2023-06-26T09:27:26;100384.21;;;30.26;25.01
49709;BME280;35601;55.902;13.606;2023-06-26T09:29:51;100385.18;;;30.01;26.40
49709;BME280;35601;55.902;13.606;2023-06-26T09:32:16;100372.98;;;30.54;24.40
49709;BME280;35601;55.902;13.606;2023-06-26T09:34:42;100376.80;;;30.63;25.79
49709;BME280;35601;55.902;13.606;2023-06-26T09:37:06;100371.79;;;30.49;25.34
49709;BME280;35601;55.902;13.606;2023-06-26T09:39:31;100373.15;;;30.84;24.75
49709;BME280;35601;55.902;13.606;2023-06-26T09:41:56;100364.96;;;30.62;25.32
49709;BME280;35601;55.902;13.606;2023-06-26T09:44:21;100361.09;;;30.94;26.30
49709;BME280;35601;55.902;13.606;2023-06-26T09:46:46;100349.48;;;31.15;25.19
49709;BME280;35601;55.902;13.606;2023-06-26T09:49:11;100348.22;;;31.65;25.56
49709;BME280;35601;55.902;13.606;2023-06-26T09:51:39;100345.28;;;31.34;25.52
49709;BME280;35601;55.902;13.606;2023-06-26T09:54:03;100340.08;;;31.69;25.65
49709;BME280;35601;55.902;13.606;2023-06-26T09:56:28;100341.21;;;31.77;25.37
49709;BME280;35601;55.902;13.606;2023-06-26T09:58:55;100338.27;;;31.65;25.80
49709;BME280;35601;55.902;13.606;2023-06-26T10:01:19;100336.02;;;31.79;26.10
49709;BME280;35601;55.902;13.606;2023-06-26T10:03:43;100338.61;;;32.02;25.82
49709;BME280;35601;55.902;13.606;2023-06-26T10:06:09;100339.10;;;32.26;26.19
49709;BME280;35601;55.902;13.606;2023-06-26T10:08:34;100334.48;;;32.09;25.21
49709;BME280;35601;55.902;13.606;2023-06-26T10:11:00;100331.67;;;31.55;26.25
49709;BME280;35601;55.902;13.606;2023-06-26T10:13:30;100324.88;;;31.68;26.28
49709;BME280;35601;55.902;13.606;2023-06-26T10:15:50;100320.62;;;31.79;26.25
49709;BME280;35601;55.902;13.606;2023-06-26T10:18:15;100316.23;;;32.15;26.17
49709;BME280;35601;55.902;13.606;2023-06-26T10:20:40;100318.79;;;31.58;26.73
49709;BME280;35601;55.902;13.606;2023-06-26T10:23:06;100322.90;;;31.77;26.10
49709;BME280;35601;55.902;13.606;2023-06-26T10:25:31;100322.59;;;31.41;27.06
49709;BME280;35601;55.902;13.606;2023-06-26T10:27:59;100321.01;;;31.17;26.45
49709;BME280;35601;55.902;13.606;2023-06-26T10:30:24;100322.14;;;30.46;27.50
49709;BME280;35601;55.902;13.606;2023-06-26T10:32:45;100316.52;;;30.14;27.71
49709;BME280;35601;55.902;13.606;2023-06-26T10:35:12;100310.05;;;30.19;28.64
49709;BME280;35601;55.902;13.606;2023-06-26T10:37:41;100312.99;;;30.11;28.18
49709;BME280;35601;55.902;13.606;2023-06-26T10:40:01;100307.49;;;30.25;28.63
49709;BME280;35601;55.902;13.606;2023-06-26T10:42:34;100310.91;;;29.96;28.70
49709;BME280;35601;55.902;13.606;2023-06-26T10:44:52;100311.10;;;30.06;28.88
49709;BME280;35601;55.902;13.606;2023-06-26T10:47:29;100314.73;;;30.13;30.28
49709;BME280;35601;55.902;13.606;2023-06-26T10:49:46;100319.62;;;30.08;29.44
49709;BME280;35601;55.902;13.606;2023-06-26T10:52:07;100322.31;;;29.67;29.66
49709;BME280;35601;55.902;13.606;2023-06-26T10:54:32;100314.96;;;29.22;29.95
49709;BME280;35601;55.902;13.606;2023-06-26T10:56:56;100313.53;;;29.62;30.41
49709;BME280;35601;55.902;13.606;2023-06-26T10:59:25;100314.49;;;29.42;31.12
49709;BME280;35601;55.902;13.606;2023-06-26T11:01:54;100309.66;;;29.47;32.95
49709;BME280;35601;55.902;13.606;2023-06-26T11:04:13;100306.32;;;30.06;32.03
49709;BME280;35601;55.902;13.606;2023-06-26T11:06:38;100299.63;;;30.20;32.03
49709;BME280;35601;55.902;13.606;2023-06-26T11:09:08;100294.62;;;30.23;30.97
49709;BME280;35601;55.902;13.606;2023-06-26T11:13:54;100294.22;;;30.99;30.08
49709;BME280;35601;55.902;13.606;2023-06-26T11:16:19;100288.22;;;31.36;29.78
49709;BME280;35601;55.902;13.606;2023-06-26T11:18:45;100284.82;;;31.13;29.05
49709;BME280;35601;55.902;13.606;2023-06-26T11:21:10;100285.71;;;31.25;29.13
49709;BME280;35601;55.902;13.606;2023-06-26T11:23:36;100277.12;;;31.22;29.76
49709;BME280;35601;55.902;13.606;2023-06-26T11:26:13;100275.93;;;30.98;30.18
49709;BME280;35601;55.902;13.606;2023-06-26T11:28:25;100276.16;;;30.66;30.06
49709;BME280;35601;55.902;13.606;2023-06-26T11:30:50;100271.27;;;30.68;30.64
49709;BME280;35601;55.902;13.606;2023-06-26T11:33:15;100269.08;;;30.36;30.36
49709;BME280;35601;55.902;13.606;2023-06-26T11:35:40;100272.78;;;29.84;30.12
49709;BME280;35601;55.902;13.606;2023-06-26T11:38:07;100265.03;;;30.12;30.10
49709;BME280;35601;55.902;13.606;2023-06-26T11:40:33;100260.17;;;30.27;30.96
49709;BME280;35601;55.902;13.606;2023-06-26T11:42:56;100272.94;;;29.69;31.83
49709;BME280;35601;55.902;13.606;2023-06-26T11:45:21;100274.34;;;29.59;32.37
49709;BME280;35601;55.902;13.606;2023-06-26T11:47:46;100270.70;;;29.71;32.06
49709;BME280;35601;55.902;13.606;2023-06-26T11:50:16;100272.65;;;29.80;31.41
49709;BME280;35601;55.902;13.606;2023-06-26T11:52:37;100268.58;;;29.86;31.77
49709;BME280;35601;55.902;13.606;2023-06-26T11:55:16;100258.47;;;29.93;31.14
49709;BME280;35601;55.902;13.606;2023-06-26T11:57:26;100264.18;;;29.90;31.68
49709;BME280;35601;55.902;13.606;2023-06-26T11:59:54;100265.57;;;29.32;31.97
49709;BME280;35601;55.902;13.606;2023-06-26T12:02:19;100269.99;;;28.86;32.24
49709;BME280;35601;55.902;13.606;2023-06-26T12:04:44;100259.66;;;29.30;31.34
49709;BME280;35601;55.902;13.606;2023-06-26T12:07:09;100259.54;;;29.54;32.40
49709;BME280;35601;55.902;13.606;2023-06-26T12:09:34;100261.49;;;29.05;32.12
49709;BME280;35601;55.902;13.606;2023-06-26T12:12:00;100263.28;;;29.25;32.73
49709;BME280;35601;55.902;13.606;2023-06-26T12:14:25;100256.10;;;29.30;32.35
49709;BME280;35601;55.902;13.606;2023-06-26T12:16:50;100255.11;;;29.40;31.83
49709;BME280;35601;55.902;13.606;2023-06-26T12:19:14;100252.97;;;29.60;31.46
49709;BME280;35601;55.902;13.606;2023-06-26T12:21:47;100250.94;;;29.59;31.29
49709;BME280;35601;55.902;13.606;2023-06-26T12:24:06;100244.36;;;29.99;30.56
49709;BME280;35601;55.902;13.606;2023-06-26T12:26:31;100227.49;;;29.79;31.27
49709;BME280;35601;55.902;13.606;2023-06-26T12:29:01;100223.18;;;30.09;30.95
49709;BME280;35601;55.902;13.606;2023-06-26T12:31:21;100214.92;;;30.52;30.19